Whittaker, Michigan
Current Conditions -  °F | °C
As of 7:53 PM on Saturday 25 Oct 2014 (Local Time) from KYIP Reporting Station
Clear Clear  
Wind Chill: 62°   Ceiling: Unl
Heat Index: 62°   Visibility: 10mi
Dew Point: 31°   Wind: 14mph
Humidity: 31%   Direction: 280°W
Pressure: 29.8"   Gusts: NA
Location:  42.13°N, 83.6°W
Report Text: KYIP 252353Z AUTO 28012KT 10SM CLR 17/M01 A2980 RMK AO2 PK WND 29026/2306 SLP087 T01671006 10233 20167 51018 TSNO $
Loading
Personal Weather Stations






























Interactive Weather Map
Tropical Storm Tracking
New forecast layout! Learn more

10-Day Weather Forecast

Advertisements
Track Severe Weather on mobile